Time;durP1;ratioP1;P1;durP2;ratioP2;P2;SDS_P1;SDS_P2;PMS_P1;PMS_P2;Temp;Humidity;BMP_temperature;BMP_pressure;BME280_temperature;BME280_humidity;BME280_pressure;Samples;Min_cycle;Max_cycle;Signal;HPM_P1;HPM_P2
2021/12/06 12:01:23;;;;;;;12.83;6.30;;;-2.10;99.90;;;;;;3831382;37;20070;-68
2021/12/06 12:03:58;;;;;;;10.38;5.53;;;-2.40;99.90;;;;;;4377616;32;20191;-70
2021/12/06 12:06:35;;;;;;;11.70;6.30;;;-2.50;99.90;;;;;;4374534;32;20074;-70
2021/12/06 12:09:06;;;;;;;9.85;5.90;;;-2.40;99.90;;;;;;4368874;32;20158;-72
2021/12/06 12:12:11;;;;;;;15.55;6.30;;;-2.50;99.90;;;;;;4374895;32;20084;-72
2021/12/06 12:14:50;;;;;;;13.13;5.97;;;-2.50;99.90;;;;;;4375027;32;20194;-70
2021/12/06 12:17:18;;;;;;;11.15;6.25;;;-2.50;99.90;;;;;;4385931;32;20173;-69
2021/12/06 12:19:47;;;;;;;8.40;5.70;;;-2.50;99.90;;;;;;4390982;32;20103;-69
2021/12/06 12:22:16;;;;;;;9.70;5.75;;;-2.50;99.90;;;;;;4372056;32;20159;-68
2021/12/06 12:24:47;;;;;;;12.90;6.55;;;-2.50;99.90;;;;;;4361651;32;20085;-71
2021/12/06 12:27:34;;;;;;;11.30;6.85;;;-2.50;99.90;;;;;;4370320;32;20078;-72
2021/12/06 12:30:03;;;;;;;9.73;6.15;;;-2.60;99.90;;;;;;4370449;32;20492;-71
2021/12/06 12:35:15;;;;;;;10.55;5.87;;;-2.60;99.90;;;;;;3840988;37;20054;-71
2021/12/06 12:37:44;;;;;;;9.27;5.40;;;-2.70;99.90;;;;;;4406684;32;20104;-72
2021/12/06 12:40:21;;;;;;;9.70;5.22;;;-2.70;99.90;;;;;;4405161;32;20084;-73
2021/12/06 12:43:05;;;;;;;11.15;6.47;;;-2.70;99.90;;;;;;4392073;32;20070;-71
2021/12/06 12:45:39;;;;;;;11.75;6.32;;;-2.70;99.90;;;;;;4405400;32;20105;-72
2021/12/06 12:48:08;;;;;;;10.88;6.43;;;-2.70;99.90;;;;;;4377503;32;20077;-71
2021/12/06 12:50:35;;;;;;;8.32;5.90;;;-2.70;99.90;;;;;;4398756;32;20080;-71
2021/12/06 12:53:17;;;;;;;13.30;5.75;;;-2.70;99.90;;;;;;4385279;32;20081;-71
2021/12/06 12:55:49;;;;;;;7.00;5.10;;;-2.70;99.90;;;;;;4369158;32;20451;-70
2021/12/06 12:58:19;;;;;;;10.13;6.90;;;-2.80;99.90;;;;;;4392980;32;20125;-72
2021/12/06 13:01:11;;;;;;;11.20;6.22;;;-2.80;99.90;;;;;;4390824;32;20069;-69
2021/12/06 13:04:00;;;;;;;10.20;5.10;;;-2.80;99.90;;;;;;4385043;32;20058;-64
2021/12/06 13:06:34;;;;;;;11.45;6.87;;;-2.80;99.90;;;;;;4388600;32;20153;-71
2021/12/06 13:09:23;;;;;;;13.30;7.70;;;-2.80;99.90;;;;;;4390993;32;20100;-71
2021/12/06 13:11:57;;;;;;;16.23;8.23;;;-2.80;99.90;;;;;;4396434;32;20119;-72
2021/12/06 13:14:41;;;;;;;13.60;7.87;;;-2.90;99.90;;;;;;4393253;32;20071;-72
2021/12/06 13:17:14;;;;;;;10.55;6.12;;;-2.90;99.90;;;;;;4394908;32;20157;-67
2021/12/06 13:19:55;;;;;;;14.90;6.55;;;-2.90;99.90;;;;;;4394578;32;20528;-67
2021/12/06 13:22:31;;;;;;;11.45;7.18;;;-2.90;99.90;;;;;;4384356;32;20089;-70
2021/12/06 13:25:07;;;;;;;9.20;6.03;;;-2.90;99.90;;;;;;4387949;32;20085;-68
2021/12/06 13:27:43;;;;;;;13.07;6.30;;;-2.90;99.90;;;;;;4385351;32;20070;-67
2021/12/06 13:30:23;;;;;;;8.32;5.25;;;-2.90;99.90;;;;;;4382168;32;20540;-69
2021/12/06 13:33:03;;;;;;;8.98;6.10;;;-3.00;99.90;;;;;;4377290;32;20098;-66
2021/12/06 13:35:55;;;;;;;8.40;5.57;;;-3.00;99.90;;;;;;4388182;32;20085;-65
2021/12/06 13:38:42;;;;;;;11.30;5.82;;;-3.00;99.90;;;;;;4376789;32;20438;-66
2021/12/06 13:41:25;;;;;;;13.95;7.55;;;-3.10;99.90;;;;;;4379693;32;20161;-72
2021/12/06 13:44:10;;;;;;;9.82;5.85;;;-3.10;99.90;;;;;;4390574;32;20585;-74
2021/12/06 13:46:42;;;;;;;10.88;6.80;;;-3.10;99.90;;;;;;4370077;32;20129;-72
2021/12/06 13:49:14;;;;;;;10.73;6.57;;;-3.00;99.90;;;;;;4376231;32;20082;-74
2021/12/06 13:51:58;;;;;;;10.52;6.87;;;-3.00;99.90;;;;;;4377779;32;20459;-71
2021/12/06 13:54:37;;;;;;;11.15;6.80;;;-3.00;99.90;;;;;;4370723;32;20503;-67
2021/12/06 13:57:15;;;;;;;13.40;7.75;;;-3.00;99.90;;;;;;4377068;32;20093;-73
2021/12/06 13:59:54;;;;;;;14.85;8.55;;;-3.00;99.90;;;;;;4358934;32;20167;-70
2021/12/06 14:02:28;;;;;;;19.40;10.52;;;-3.00;99.90;;;;;;4371156;32;20081;-65
2021/12/06 14:04:57;;;;;;;15.20;8.45;;;-3.00;99.90;;;;;;4366662;32;20058;-65
2021/12/06 14:07:27;;;;;;;24.17;12.93;;;-3.00;99.90;;;;;;4383025;32;20077;-66
2021/12/06 14:09:57;;;;;;;18.48;10.93;;;-3.00;99.90;;;;;;4381382;32;20081;-66
2021/12/06 14:12:31;;;;;;;19.15;9.70;;;-3.00;99.90;;;;;;4377921;32;20533;-67
2021/12/06 14:15:35;;;;;;;19.27;10.52;;;-3.00;99.90;;;;;;4376252;32;20065;-68
2021/12/06 14:18:01;;;;;;;90.47;44.00;;;-3.00;99.90;;;;;;4376003;32;20515;-69
2021/12/06 14:20:28;;;;;;;90.90;47.55;;;-3.00;99.90;;;;;;4378363;32;20198;-69
2021/12/06 14:22:55;;;;;;;84.72;39.25;;;-3.00;99.90;;;;;;4366031;32;20074;-66
2021/12/06 14:25:22;;;;;;;52.25;25.10;;;-3.00;99.90;;;;;;4368182;32;20089;-70
2021/12/06 14:27:50;;;;;;;31.05;16.20;;;-3.00;99.90;;;;;;4368611;32;20150;-66
2021/12/06 14:30:20;;;;;;;18.80;10.15;;;-3.00;99.90;;;;;;4387887;32;20189;-69
2021/12/06 14:32:55;;;;;;;16.75;9.18;;;-3.00;99.90;;;;;;4375209;32;20086;-69
2021/12/06 14:35:25;;;;;;;13.32;8.73;;;-3.10;99.90;;;;;;4365413;32;20078;-66
2021/12/06 14:37:53;;;;;;;21.15;9.10;;;-3.10;99.90;;;;;;4380761;32;20102;-66
2021/12/06 14:40:21;;;;;;;15.98;7.07;;;-3.10;99.90;;;;;;4385164;32;20085;-71
2021/12/06 14:42:49;;;;;;;16.27;7.32;;;-3.10;99.90;;;;;;4374693;32;20093;-66
2021/12/06 14:45:19;;;;;;;20.05;10.35;;;-3.10;99.90;;;;;;4382657;32;20125;-67
2021/12/06 14:47:58;;;;;;;10.43;5.95;;;-3.00;99.90;;;;;;4373877;32;20078;-66
2021/12/06 14:50:38;;;;;;;17.83;8.65;;;-3.10;99.90;;;;;;4377316;32;20081;-68
2021/12/06 14:53:22;;;;;;;20.30;9.20;;;-3.10;99.90;;;;;;4374776;32;20186;-67
2021/12/06 14:58:35;;;;;;;12.98;7.15;;;-3.10;99.90;;;;;;4367528;32;20502;-66
2021/12/06 15:01:09;;;;;;;11.95;7.28;;;-2.80;99.90;;;;;;4354032;32;20073;-69
2021/12/06 15:03:40;;;;;;;12.88;7.47;;;-2.80;99.90;;;;;;4386134;32;20554;-69
2021/12/06 15:06:08;;;;;;;12.60;6.85;;;-2.90;99.90;;;;;;4364067;32;20166;-68
2021/12/06 15:08:44;;;;;;;10.57;6.53;;;-2.90;99.90;;;;;;4383236;32;20186;-72
2021/12/06 15:11:18;;;;;;;12.35;7.70;;;-3.00;99.90;;;;;;4377014;32;20258;-69
2021/12/06 15:13:49;;;;;;;14.75;6.60;;;-3.00;99.90;;;;;;4383502;32;20084;-69
2021/12/06 15:16:19;;;;;;;13.55;6.50;;;-2.90;99.90;;;;;;4370363;32;20086;-67
2021/12/06 15:18:47;;;;;;;13.60;6.62;;;-2.60;99.90;;;;;;4372745;32;20113;-70
2021/12/06 15:21:16;;;;;;;11.80;6.50;;;-2.70;99.90;;;;;;4379348;32;20161;-68
2021/12/06 15:23:49;;;;;;;15.30;6.90;;;-2.50;99.90;;;;;;4368546;32;20206;-65
2021/12/06 15:26:26;;;;;;;12.90;6.18;;;-2.40;99.90;;;;;;4364398;32;20098;-68
2021/12/06 15:28:57;;;;;;;14.10;6.03;;;-2.40;99.90;;;;;;4388720;32;20105;-71
2021/12/06 15:31:28;;;;;;;9.48;5.35;;;-2.50;99.90;;;;;;4376667;32;20090;-70
2021/12/06 15:33:58;;;;;;;13.10;5.50;;;-2.40;99.90;;;;;;4376034;32;20131;-70
2021/12/06 15:36:28;;;;;;;6.32;4.43;;;-2.30;99.90;;;;;;4390992;32;20070;-68
2021/12/06 15:39:08;;;;;;;20.10;8.40;;;-2.20;99.90;;;;;;4391095;32;20503;-69
2021/12/06 15:42:00;;;;;;;13.95;5.57;;;-2.40;99.90;;;;;;4377782;32;20160;-70
2021/12/06 15:44:38;;;;;;;13.23;5.32;;;-2.50;99.90;;;;;;4377758;32;20163;-70
2021/12/06 15:47:19;;;;;;;16.87;6.95;;;-2.50;99.90;;;;;;4377870;32;20078;-71
2021/12/06 15:49:53;;;;;;;9.70;4.97;;;-2.50;99.90;;;;;;4378058;32;20089;-69
2021/12/06 15:52:24;;;;;;;16.70;6.35;;;-2.40;99.90;;;;;;4392084;32;20152;-70
2021/12/06 15:55:03;;;;;;;13.23;6.53;;;-2.50;99.90;;;;;;4390120;32;20054;-69
2021/12/06 15:57:39;;;;;;;13.48;7.22;;;-2.50;99.90;;;;;;4377677;32;20090;-71
2021/12/06 16:00:11;;;;;;;11.32;6.03;;;-2.50;99.90;;;;;;4390978;32;20070;-70
2021/12/06 16:02:41;;;;;;;10.70;6.87;;;-2.40;99.90;;;;;;4389945;32;20074;-69
2021/12/06 16:05:35;;;;;;;15.45;8.75;;;-2.50;99.90;;;;;;4377842;32;20096;-70
2021/12/06 16:08:14;;;;;;;8.98;6.80;;;-2.40;99.90;;;;;;4383519;32;20523;-70
2021/12/06 16:10:46;;;;;;;9.90;6.03;;;-2.40;99.90;;;;;;4377684;32;20077;-69
2021/12/06 16:13:17;;;;;;;9.20;5.90;;;-2.50;99.90;;;;;;4377772;32;20080;-70
2021/12/06 16:15:52;;;;;;;7.93;5.30;;;-2.40;99.90;;;;;;4365479;32;20081;-71
2021/12/06 16:18:27;;;;;;;10.48;5.95;;;-2.50;99.90;;;;;;4377489;32;20506;-69
2021/12/06 16:21:03;;;;;;;6.97;5.18;;;-2.50;99.90;;;;;;4378019;32;20081;-68
2021/12/06 16:23:41;;;;;;;9.88;6.22;;;-2.40;99.90;;;;;;4389593;32;20441;-70
2021/12/06 16:26:14;;;;;;;8.70;4.65;;;-2.50;99.90;;;;;;4389658;32;20140;-70
2021/12/06 16:29:03;;;;;;;12.50;6.35;;;-2.40;99.90;;;;;;4377488;32;20073;-70
2021/12/06 16:31:34;;;;;;;11.23;6.50;;;-2.40;99.90;;;;;;4377089;32;20094;-69
2021/12/06 16:34:08;;;;;;;9.77;6.10;;;-2.40;99.90;;;;;;4389636;32;20526;-70
2021/12/06 16:36:42;;;;;;;8.88;6.10;;;-2.40;99.90;;;;;;4377635;32;20181;-70
2021/12/06 16:39:09;;;;;;;6.80;4.82;;;-2.30;99.90;;;;;;4377065;32;20065;-70
2021/12/06 16:41:52;;;;;;;8.95;4.75;;;-2.30;99.90;;;;;;4377154;32;20491;-69
2021/12/06 16:44:26;;;;;;;8.90;5.80;;;-2.40;99.90;;;;;;4377132;32;20158;-71
2021/12/06 16:46:59;;;;;;;9.07;4.32;;;-2.40;99.90;;;;;;4389819;32;20078;-70
2021/12/06 16:49:53;;;;;;;8.43;5.10;;;-2.30;99.90;;;;;;4376774;32;20158;-70
2021/12/06 16:52:29;;;;;;;8.98;5.07;;;-2.20;99.90;;;;;;4383069;32;20078;-69
2021/12/06 16:55:29;;;;;;;10.80;6.30;;;-2.30;99.90;;;;;;4391369;32;20078;-69
2021/12/06 16:58:11;;;;;;;10.70;6.53;;;-2.40;99.90;;;;;;4376974;32;20530;-71
2021/12/06 17:01:00;;;;;;;8.63;6.40;;;-2.40;99.90;;;;;;4365043;32;20186;-70
2021/12/06 17:03:35;;;;;;;10.38;6.20;;;-2.40;99.90;;;;;;4389368;32;20080;-69
2021/12/06 17:06:07;;;;;;;9.10;6.18;;;-2.40;99.90;;;;;;4389340;32;20139;-69
2021/12/06 17:08:38;;;;;;;11.00;6.15;;;-2.40;99.90;;;;;;4389814;32;20082;-70
2021/12/06 17:11:25;;;;;;;10.13;6.65;;;-2.40;99.90;;;;;;4364924;32;20097;-70
2021/12/06 17:14:01;;;;;;;;;;;-2.30;99.90;;;;;;4377496;32;20089;-70
2021/12/06 17:16:34;;;;;;;9.52;6.10;;;-2.30;99.90;;;;;;4376837;32;19964;-70
2021/12/06 17:19:20;;;;;;;9.32;6.40;;;-2.30;99.90;;;;;;4390764;32;20185;-70
2021/12/06 17:21:51;;;;;;;10.10;5.78;;;-2.30;99.90;;;;;;4391832;32;20452;-70
2021/12/06 17:24:33;;;;;;;9.10;5.30;;;-2.30;99.90;;;;;;4393767;32;20166;-70
2021/12/06 17:26:59;;;;;;;7.03;4.85;;;-2.30;99.90;;;;;;4379718;32;20066;-69
2021/12/06 17:29:27;;;;;;;7.70;5.20;;;-2.40;99.90;;;;;;4367386;32;20198;-70
2021/12/06 17:32:10;;;;;;;8.98;4.87;;;-2.40;99.90;;;;;;4392687;32;20499;-71
2021/12/06 17:34:38;;;;;;;8.05;4.87;;;-2.40;99.90;;;;;;4379651;32;20062;-69
2021/12/06 17:37:09;;;;;;;6.72;4.68;;;-2.50;99.90;;;;;;4392164;32;20093;-70
2021/12/06 17:39:42;;;;;;;10.00;4.53;;;-2.40;99.90;;;;;;4379459;32;20488;-69
2021/12/06 17:42:12;;;;;;;7.45;4.72;;;-2.30;99.90;;;;;;4392100;32;20096;-68
2021/12/06 17:44:40;;;;;;;6.55;4.40;;;-2.40;99.90;;;;;;4367220;32;20085;-71
2021/12/06 17:47:07;;;;;;;8.48;4.80;;;-2.30;99.90;;;;;;4392041;32;20092;-70
2021/12/06 17:49:36;;;;;;;7.93;4.93;;;-2.30;99.90;;;;;;4379578;32;20159;-70
2021/12/06 17:52:06;;;;;;;9.80;5.03;;;-2.30;99.90;;;;;;4391778;32;20135;-70
2021/12/06 17:54:33;;;;;;;8.65;5.20;;;-2.30;99.90;;;;;;4379653;32;20124;-70
2021/12/06 17:57:03;;;;;;;8.80;5.45;;;-2.30;99.90;;;;;;4392001;32;20076;-69
2021/12/06 17:59:33;;;;;;;7.62;5.00;;;-2.30;99.90;;;;;;4367132;32;20076;-69
2021/12/06 18:02:07;;;;;;;8.32;4.90;;;-2.30;99.90;;;;;;4379213;32;20149;-69
2021/12/06 18:04:41;;;;;;;7.28;4.75;;;-2.30;99.90;;;;;;4379217;32;20104;-71
2021/12/06 18:07:11;;;;;;;6.18;4.80;;;-2.30;99.90;;;;;;4367024;32;20086;-70
2021/12/06 18:09:40;;;;;;;8.05;4.80;;;-2.30;99.90;;;;;;4391732;32;20139;-70
2021/12/06 18:12:09;;;;;;;7.50;4.62;;;-2.30;99.90;;;;;;4379675;32;20153;-70
2021/12/06 18:14:37;;;;;;;7.97;4.28;;;-2.30;99.90;;;;;;4378946;32;20084;-69
2021/12/06 18:17:07;;;;;;;7.97;4.40;;;-2.30;99.90;;;;;;4391694;32;20153;-69
2021/12/06 18:19:39;;;;;;;5.70;4.00;;;-2.20;99.90;;;;;;4379355;32;20162;-70
2021/12/06 18:22:06;;;;;;;7.15;4.43;;;-2.30;99.90;;;;;;4391342;32;20081;-68
2021/12/06 18:24:33;;;;;;;7.93;4.65;;;-2.30;99.90;;;;;;4379060;32;20510;-70
2021/12/06 18:27:00;;;;;;;6.57;4.28;;;-2.30;99.90;;;;;;4392292;32;20085;-69
2021/12/06 18:29:30;;;;;;;5.93;4.12;;;-2.30;99.90;;;;;;4379156;32;20101;-70
2021/12/06 18:31:58;;;;;;;7.75;4.35;;;-2.40;99.90;;;;;;4378861;32;20098;-70
2021/12/06 18:34:26;;;;;;;7.03;4.78;;;-2.30;99.90;;;;;;4378410;32;20547;-68
2021/12/06 18:36:53;;;;;;;10.27;4.05;;;-2.30;99.90;;;;;;4378807;32;20138;-69
2021/12/06 18:39:28;;;;;;;10.30;4.45;;;-2.40;99.90;;;;;;4378725;32;20081;-68
2021/12/06 18:41:55;;;;;;;14.57;4.60;;;-2.40;99.90;;;;;;4367010;32;20082;-69
2021/12/06 18:46:58;;;;;;;5.70;3.70;;;-2.40;99.90;;;;;;4391922;32;20081;-69
2021/12/06 18:49:26;;;;;;;5.05;3.47;;;-2.40;99.90;;;;;;4378672;32;20088;-70
2021/12/06 18:51:56;;;;;;;8.20;4.78;;;-2.40;99.90;;;;;;4391067;32;20104;-70
2021/12/06 18:54:23;;;;;;;9.60;4.43;;;-2.30;99.90;;;;;;4390866;32;20065;-69
2021/12/06 18:56:49;;;;;;;5.97;3.80;;;-2.40;99.90;;;;;;4366076;32;20088;-70
2021/12/06 18:59:16;;;;;;;4.95;3.42;;;-2.40;99.90;;;;;;4391083;32;20492;-70
2021/12/06 19:01:43;;;;;;;8.27;4.07;;;-2.40;99.90;;;;;;4390798;32;20081;-70
2021/12/06 19:04:10;;;;;;;7.00;3.97;;;-2.40;99.90;;;;;;4378520;32;20061;-69
2021/12/06 19:06:37;;;;;;;5.35;3.80;;;-2.30;99.90;;;;;;4390877;32;20093;-70
2021/12/06 19:09:06;;;;;;;5.90;3.97;;;-2.30;99.90;;;;;;4378403;32;20095;-69
2021/12/06 19:11:34;;;;;;;7.05;4.10;;;-2.30;99.90;;;;;;4378608;32;20066;-70
2021/12/06 19:14:00;;;;;;;5.43;3.97;;;-2.30;99.90;;;;;;4390851;32;20069;-70
2021/12/06 19:16:27;;;;;;;6.15;4.03;;;-2.30;99.90;;;;;;4378367;32;20094;-69
2021/12/06 19:18:54;;;;;;;7.75;5.30;;;-2.30;99.90;;;;;;4377908;32;20086;-69
2021/12/06 19:21:23;;;;;;;7.43;4.62;;;-2.40;99.90;;;;;;4365817;32;20078;-69
2021/12/06 19:23:50;;;;;;;6.07;4.15;;;-2.30;99.90;;;;;;4378283;32;20095;-70
2021/12/06 19:26:17;;;;;;;5.72;3.62;;;-2.30;99.90;;;;;;4378181;32;20503;-69
2021/12/06 19:28:43;;;;;;;5.68;3.60;;;-2.30;99.90;;;;;;4378124;32;20072;-69
2021/12/06 19:31:10;;;;;;;7.05;5.35;;;-2.40;99.90;;;;;;4365570;32;20155;-69
2021/12/06 19:33:38;;;;;;;7.57;5.07;;;-2.50;99.90;;;;;;4377468;32;20487;-70
2021/12/06 19:36:08;;;;;;;4.37;3.28;;;-2.50;99.90;;;;;;4378547;32;20140;-68
2021/12/06 19:38:37;;;;;;;5.18;3.55;;;-2.40;99.90;;;;;;4365748;32;20119;-70
2021/12/06 19:41:05;;;;;;;5.35;3.25;;;-2.40;99.90;;;;;;4390349;32;20101;-69
2021/12/06 19:43:34;;;;;;;5.57;4.07;;;-2.40;99.90;;;;;;4365037;32;20066;-70
2021/12/06 19:46:03;;;;;;;5.43;3.80;;;-2.50;99.90;;;;;;4365010;32;20655;-69
2021/12/06 19:48:30;;;;;;;7.65;4.30;;;-2.50;99.90;;;;;;4377747;32;20070;-69
2021/12/06 19:51:01;;;;;;;6.97;4.05;;;-2.30;99.90;;;;;;4377379;32;20082;-71
2021/12/06 19:53:28;;;;;;;5.75;3.60;;;-2.50;99.90;;;;;;4377993;32;20506;-68
2021/12/06 19:55:56;;;;;;;6.97;4.43;;;-2.60;99.90;;;;;;4390575;32;20521;-69
2021/12/06 19:58:27;;;;;;;5.00;3.60;;;-2.50;99.90;;;;;;4377603;32;20560;-70
2021/12/06 20:00:55;;;;;;;6.20;3.65;;;-2.50;99.90;;;;;;4390255;32;20156;-70
2021/12/06 20:03:23;;;;;;;7.65;3.85;;;-2.60;99.90;;;;;;4390216;32;20085;-69
2021/12/06 20:05:50;;;;;;;6.32;3.08;;;-2.50;99.90;;;;;;4390157;32;20232;-69
2021/12/06 20:08:24;;;;;;;5.32;3.72;;;-2.50;99.90;;;;;;4377560;32;20070;-70
2021/12/06 20:10:56;;;;;;;4.80;3.60;;;-2.40;99.90;;;;;;4378042;32;20523;-69
2021/12/06 20:13:23;;;;;;;5.07;3.17;;;-2.30;99.90;;;;;;4391340;32;20088;-68
2021/12/06 20:15:50;;;;;;;4.57;3.30;;;-2.60;99.90;;;;;;4365051;32;20077;-70
2021/12/06 20:18:17;;;;;;;5.05;3.42;;;-2.60;99.90;;;;;;4377524;32;20082;-70
2021/12/06 20:20:44;;;;;;;5.28;3.55;;;-2.60;99.90;;;;;;4377605;32;20084;-70
2021/12/06 20:23:11;;;;;;;5.30;3.35;;;-2.60;99.90;;;;;;4377070;32;20569;-69
2021/12/06 20:25:39;;;;;;;5.40;3.92;;;-2.50;99.90;;;;;;4377536;32;20178;-69
2021/12/06 20:28:11;;;;;;;4.97;3.50;;;-2.50;99.90;;;;;;4390649;32;20082;-68
2021/12/06 20:30:39;;;;;;;4.65;3.25;;;-2.40;99.90;;;;;;4389765;32;20098;-69
2021/12/06 20:33:06;;;;;;;6.72;3.40;;;-2.40;99.90;;;;;;4377115;32;20091;-69
2021/12/06 20:35:33;;;;;;;6.62;3.60;;;-2.50;99.90;;;;;;4390168;32;20074;-69
2021/12/06 20:38:00;;;;;;;6.15;3.60;;;-2.50;99.90;;;;;;4377951;32;20153;-70
2021/12/06 20:40:27;;;;;;;8.07;5.15;;;-2.50;99.90;;;;;;4377621;32;20058;-70
2021/12/06 20:42:54;;;;;;;7.43;3.70;;;-2.50;99.90;;;;;;4389795;32;20523;-70
2021/12/06 20:45:21;;;;;;;4.85;3.60;;;-2.60;99.90;;;;;;4377607;32;20094;-70
2021/12/06 20:47:49;;;;;;;7.87;4.50;;;-2.50;99.90;;;;;;4391226;32;20062;-70
2021/12/06 20:50:17;;;;;;;5.80;3.80;;;-2.40;99.90;;;;;;4389730;32;20077;-70
2021/12/06 20:52:44;;;;;;;6.72;3.50;;;-2.40;99.90;;;;;;4377623;32;20070;-71
2021/12/06 20:55:11;;;;;;;4.43;3.10;;;-2.30;99.90;;;;;;4365380;32;20163;-70
2021/12/06 20:57:38;;;;;;;4.43;2.97;;;-2.40;99.90;;;;;;4380206;32;20151;-69
2021/12/06 21:00:14;;;;;;;4.95;3.20;;;-2.60;99.90;;;;;;4380426;32;20144;-69
2021/12/06 21:02:40;;;;;;;4.53;3.00;;;-2.60;99.90;;;;;;4392974;32;20081;-69
2021/12/06 21:05:09;;;;;;;4.47;3.30;;;-2.70;99.90;;;;;;4380059;32;20496;-69
2021/12/06 21:07:39;;;;;;;6.00;3.15;;;-2.70;99.90;;;;;;4392605;32;20112;-70
2021/12/06 21:10:15;;;;;;;6.80;3.42;;;-2.70;99.90;;;;;;4381109;32;20088;-70
2021/12/06 21:17:55;;;;;;;4.68;3.17;;;-2.50;99.90;;;;;;4393974;32;20601;-69
2021/12/06 21:20:23;;;;;;;5.03;3.17;;;-2.70;99.90;;;;;;4392876;32;20235;-70
2021/12/06 21:22:50;;;;;;;5.30;3.87;;;-2.60;99.90;;;;;;4379966;32;20053;-69
2021/12/06 21:25:16;;;;;;;5.95;3.20;;;-2.60;99.90;;;;;;4393906;32;20510;-70
2021/12/06 21:27:45;;;;;;;3.55;2.95;;;-2.60;99.90;;;;;;4392380;32;20171;-70
2021/12/06 21:30:12;;;;;;;3.67;2.80;;;-2.80;99.90;;;;;;4393816;32;20516;-69
2021/12/06 21:32:39;;;;;;;4.28;3.10;;;-2.80;99.90;;;;;;4367440;32;20082;-69
2021/12/06 21:35:07;;;;;;;4.62;3.22;;;-2.70;99.90;;;;;;4392422;32;20070;-70
2021/12/06 21:37:33;;;;;;;5.00;3.60;;;-2.70;99.90;;;;;;4379643;32;20082;-69
2021/12/06 21:40:00;;;;;;;4.45;3.40;;;-2.70;99.90;;;;;;4379982;32;20081;-70
2021/12/06 21:42:27;;;;;;;5.85;3.25;;;-2.80;99.90;;;;;;4379659;32;20228;-69
2021/12/06 21:44:53;;;;;;;5.82;4.05;;;-2.80;99.90;;;;;;4392732;32;20084;-69
2021/12/06 21:47:20;;;;;;;5.45;3.00;;;-2.80;99.90;;;;;;4379571;32;20108;-70
2021/12/06 21:49:49;;;;;;;5.00;3.53;;;-2.80;99.90;;;;;;4393217;32;20471;-70
2021/12/06 21:52:17;;;;;;;6.25;3.50;;;-2.70;99.90;;;;;;4379687;32;20606;-70
2021/12/06 21:54:44;;;;;;;3.67;3.00;;;-2.90;99.90;;;;;;4392258;32;20150;-70
2021/12/06 21:57:10;;;;;;;5.45;3.47;;;-2.80;99.90;;;;;;4367026;32;20082;-70
2021/12/06 21:59:37;;;;;;;4.47;3.28;;;-2.70;99.90;;;;;;4379434;32;20524;-70
2021/12/06 22:02:07;;;;;;;5.57;3.10;;;-2.60;99.90;;;;;;4391694;32;20074;-70
2021/12/06 22:04:33;;;;;;;4.40;3.08;;;-2.60;99.90;;;;;;4380253;32;20088;-70
2021/12/06 22:07:00;;;;;;;4.28;3.53;;;-2.60;99.90;;;;;;4378971;32;20062;-70
2021/12/06 22:09:27;;;;;;;4.70;3.58;;;-2.70;99.90;;;;;;4366783;32;20086;-70
2021/12/06 22:11:54;;;;;;;4.43;3.22;;;-2.70;99.90;;;;;;4379121;32;20081;-70
2021/12/06 22:14:21;;;;;;;5.47;3.62;;;-2.70;99.90;;;;;;4366979;32;20081;-71
2021/12/06 22:16:48;;;;;;;5.90;3.62;;;-2.80;99.90;;;;;;4379278;32;20511;-70
2021/12/06 22:19:17;;;;;;;5.18;3.75;;;-2.70;99.90;;;;;;4392907;32;20443;-70
2021/12/06 22:21:45;;;;;;;5.20;3.42;;;-2.70;99.90;;;;;;4379402;32;20096;-69
2021/12/06 22:24:12;;;;;;;5.72;3.30;;;-2.60;99.90;;;;;;4393044;32;20091;-70
2021/12/06 22:26:39;;;;;;;5.95;3.30;;;-2.70;99.90;;;;;;4379021;32;20088;-70
2021/12/06 22:29:06;;;;;;;5.00;3.50;;;-2.70;99.90;;;;;;4378922;32;20070;-70
2021/12/06 22:31:33;;;;;;;6.70;3.67;;;-2.70;99.90;;;;;;4378787;32;20182;-70
2021/12/06 22:34:00;;;;;;;5.93;3.45;;;-2.80;99.90;;;;;;4378376;32;20522;-71
2021/12/06 22:36:26;;;;;;;4.72;3.10;;;-2.70;99.90;;;;;;4366194;32;20068;-70
2021/12/06 22:38:53;;;;;;;4.72;2.97;;;-2.70;99.90;;;;;;4378890;32;20089;-70
2021/12/06 22:41:19;;;;;;;3.42;2.55;;;-2.70;99.90;;;;;;4392918;32;20084;-70
2021/12/06 22:43:46;;;;;;;5.00;2.90;;;-2.80;99.90;;;;;;4366380;32;20140;-70
2021/12/06 22:46:13;;;;;;;4.37;3.00;;;-2.70;99.90;;;;;;4366164;32;20149;-70
2021/12/06 22:48:42;;;;;;;5.05;3.17;;;-2.70;99.90;;;;;;4378741;32;20062;-70
2021/12/06 22:51:10;;;;;;;4.00;2.90;;;-2.80;99.90;;;;;;4378419;32;20160;-69
2021/12/06 22:53:37;;;;;;;4.40;2.95;;;-2.90;99.90;;;;;;4378277;32;20082;-70
2021/12/06 22:56:04;;;;;;;4.87;3.20;;;-2.80;99.90;;;;;;4390902;32;20218;-70
2021/12/06 22:58:31;;;;;;;3.90;2.70;;;-2.90;99.90;;;;;;4365656;32;20551;-71
2021/12/06 23:01:03;;;;;;;4.97;3.20;;;-2.70;99.90;;;;;;4378367;32;20093;-70
2021/12/06 23:03:32;;;;;;;4.68;3.03;;;-2.60;99.90;;;;;;4391032;32;20073;-70
2021/12/06 23:05:58;;;;;;;3.47;2.45;;;-2.60;99.90;;;;;;4391226;32;20081;-69
2021/12/06 23:08:29;;;;;;;4.00;2.33;;;-2.60;99.90;;;;;;4378644;32;20176;-70
2021/12/06 23:10:56;;;;;;;4.43;2.92;;;-2.50;99.90;;;;;;4379058;32;20589;-70
2021/12/06 23:13:23;;;;;;;4.32;2.75;;;-2.60;99.90;;;;;;4378540;32;20062;-70
2021/12/06 23:15:49;;;;;;;3.85;2.47;;;-2.70;99.90;;;;;;4378121;32;20500;-70
2021/12/06 23:18:16;;;;;;;3.12;2.28;;;-2.70;99.90;;;;;;4377526;32;20096;-69
2021/12/06 23:20:43;;;;;;;3.45;2.50;;;-2.70;99.90;;;;;;4378530;32;20100;-70
2021/12/06 23:23:10;;;;;;;4.53;2.72;;;-2.70;99.90;;;;;;4392016;32;20074;-70
2021/12/06 23:25:36;;;;;;;3.87;2.62;;;-2.80;99.90;;;;;;4365377;32;20471;-70
2021/12/06 23:28:06;;;;;;;3.70;2.80;;;-2.70;99.90;;;;;;4365829;32;20147;-69
2021/12/06 23:30:34;;;;;;;3.97;2.80;;;-2.80;99.90;;;;;;4378483;32;20062;-70
2021/12/06 23:33:01;;;;;;;3.22;2.40;;;-2.60;99.90;;;;;;4377820;32;20122;-69
2021/12/06 23:35:36;;;;;;;4.45;2.78;;;-2.80;99.90;;;;;;4378397;32;20081;-69
2021/12/06 23:38:13;;;;;;;3.53;2.65;;;-2.70;99.90;;;;;;4378104;32;20078;-70
2021/12/06 23:40:47;;;;;;;;;;;-2.60;99.90;;;;;;4367202;32;20081;-70
2021/12/06 23:48:38;;;;;;;3.62;2.50;;;-2.60;99.90;;;;;;4391062;32;20117;-70
2021/12/06 23:51:05;;;;;;;3.80;2.33;;;-2.70;99.90;;;;;;4377941;32;20070;-70
2021/12/06 23:53:32;;;;;;;3.90;2.40;;;-2.60;99.90;;;;;;4365236;32;20488;-70
2021/12/06 23:56:01;;;;;;;3.65;2.67;;;-2.60;99.90;;;;;;4391923;32;20077;-70
2021/12/06 23:58:28;;;;;;;3.60;2.60;;;-2.70;99.90;;;;;;4377857;32;20181;-69
